Millwood, Missouri
Current Conditions -  °F | °C
As of 6:54 PM on Saturday 22 Nov 2014 (Local Time) from KSET Reporting Station
Overcast Overcast  
Wind Chill: 52°   Ceiling: 1800
Heat Index: 52°   Visibility: 9mi
Dew Point: 50°   Wind: 9mph
Humidity: 93%   Direction: 130°SE
Pressure: 29.91"   Gusts: NA
Location:  39.1404°N, 91.0631°W
Report Text: KSET 230054Z AUTO 13008KT 9SM OVC018 11/10 A2991 RMK AO2 RAB2355E25 SLP130 P0000 T01110100
Loading
Personal Weather Stations






























Interactive Weather Map New forecast layout! Learn more

10-Day Weather Forecast

Advertisements
Track Severe Weather on mobile